Time;durP1;ratioP1;P1;durP2;ratioP2;P2;SDS_P1;SDS_P2;PMS_P1;PMS_P2;Temp;Humidity;BMP_temperature;BMP_pressure;BME280_temperature;BME280_humidity;BME280_pressure;Samples;Min_cycle;Max_cycle;Signal;HPM_P1;HPM_P2
2023/10/10 00:01:44;;;;;;;21.13;15.50;;;;;13.00;101556.00;;;;10454377;28;20629;-72
2023/10/10 00:06:49;;;;;;;24.43;16.70;;;;;13.00;101550.00;;;;10463541;28;20788;-73
2023/10/10 00:11:53;;;;;;;25.50;17.30;;;;;12.90;101565.00;;;;10465476;28;20194;-73
2023/10/10 00:16:55;;;;;;;24.40;16.93;;;;;12.90;101573.00;;;;10463946;28;20228;-72
2023/10/10 00:21:59;;;;;;;25.23;15.27;;;;;12.80;101583.00;;;;10459335;28;20201;-72
2023/10/10 00:27:15;;;;;;;30.77;17.87;;;;;12.80;101583.00;;;;10454887;28;20197;-72
2023/10/10 00:32:17;;;;;;;23.07;16.13;;;;;12.70;101583.00;;;;10466671;28;20285;-72
2023/10/10 00:37:21;;;;;;;20.93;16.27;;;;;12.60;101586.00;;;;10466971;28;20206;-73
2023/10/10 00:42:37;;;;;;;24.37;15.87;;;;;12.50;101577.00;;;;10460095;28;20197;-73
2023/10/10 00:47:43;;;;;;;24.27;16.33;;;;;12.50;101566.00;;;;10468707;28;20960;-72
2023/10/10 00:52:50;;;;;;;23.60;15.60;;;;;12.50;101558.00;;;;10470349;28;20190;-72
2023/10/10 00:57:55;;;;;;;23.97;13.17;;;;;12.60;101560.00;;;;10465659;28;20986;-73
2023/10/10 01:03:20;;;;;;;20.83;12.67;;;;;12.70;101550.00;;;;10444636;28;20194;-72
2023/10/10 01:08:26;;;;;;;24.73;13.90;;;;;12.70;101541.00;;;;10466411;28;20539;-72
2023/10/10 01:13:30;;;;;;;25.30;14.20;;;;;12.80;101531.00;;;;10466980;28;20209;-72
2023/10/10 01:18:39;;;;;;;24.57;14.70;;;;;12.90;101526.00;;;;10456598;28;20719;-72
2023/10/10 01:23:45;;;;;;;21.77;13.67;;;;;13.00;101517.00;;;;10450733;28;20988;-72
2023/10/10 01:28:47;;;;;;;23.30;13.17;;;;;13.00;101509.00;;;;10469152;28;20271;-72
2023/10/10 01:33:49;;;;;;;19.47;12.67;;;;;13.10;101512.00;;;;10462485;28;20221;-73
2023/10/10 01:38:59;;;;;;;24.10;13.70;;;;;13.20;101511.00;;;;10465083;28;20202;-72
2023/10/10 01:44:18;;;;;;;18.93;11.77;;;;;13.10;101493.00;;;;10457027;28;20205;-73
2023/10/10 01:49:21;;;;;;;17.87;12.53;;;;;13.10;101478.00;;;;10451739;28;20905;-75
2023/10/10 01:54:41;;;;;;;23.13;12.93;;;;;13.00;101466.00;;;;10467304;28;20190;-74
2023/10/10 01:59:43;;;;;;;18.00;11.70;;;;;13.00;101474.00;;;;10460649;28;20217;-73
2023/10/10 02:04:47;;;;;;;20.30;13.20;;;;;13.00;101472.00;;;;10457087;28;20189;-74
2023/10/10 02:10:03;;;;;;;17.97;11.53;;;;;12.90;101464.00;;;;10459683;28;20193;-75
2023/10/10 02:15:12;;;;;;;26.43;12.70;;;;;12.90;101462.00;;;;10458660;28;20651;-75
2023/10/10 02:30:36;;;;;;;21.80;11.43;;;;;12.80;101449.00;;;;10460467;28;20200;-75
2023/10/10 02:35:54;;;;;;;23.63;12.80;;;;;12.80;101445.00;;;;10458580;28;20198;-74
2023/10/10 02:41:14;;;;;;;19.17;12.90;;;;;12.70;101444.00;;;;10460783;28;20252;-73
2023/10/10 02:46:20;;;;;;;21.07;12.30;;;;;12.70;101440.00;;;;10455223;28;20204;-74
2023/10/10 02:51:22;;;;;;;19.03;11.17;;;;;12.60;101442.00;;;;10466524;28;20213;-74
2023/10/10 02:56:24;;;;;;;19.30;11.33;;;;;12.50;101442.00;;;;10461248;28;20468;-74
2023/10/10 03:02:10;;;;;;;16.30;10.33;;;;;12.50;101448.00;;;;10457863;28;20576;-75
2023/10/10 03:06:51;;;;;;;18.30;10.77;;;;;12.40;101449.00;;;;10457717;28;20292;-74
2023/10/10 03:12:03;;;;;;;16.23;9.90;;;;;12.40;101452.00;;;;10462897;28;20198;-75
2023/10/10 03:17:20;;;;;;;14.10;9.17;;;;;12.40;101444.00;;;;10421053;28;20230;-74
2023/10/10 03:22:42;;;;;;;16.07;9.47;;;;;12.40;101454.00;;;;10467556;28;20247;-75
2023/10/10 03:28:05;;;;;;;13.70;9.70;;;;;12.30;101447.00;;;;10455973;28;20197;-75
2023/10/10 03:33:10;;;;;;;14.23;9.53;;;;;12.30;101451.00;;;;10463332;28;20217;-75
2023/10/10 03:38:31;;;;;;;18.30;9.83;;;;;12.20;101446.00;;;;10468373;28;20331;-74
2023/10/10 05:25:23;;;;;;;22.97;13.63;;;;;12.30;101407.00;;;;10446367;28;20251;-72
2023/10/10 05:30:27;;;;;;;23.63;14.23;;;;;12.20;101408.00;;;;10460844;28;20205;-72
2023/10/10 05:35:29;;;;;;;24.17;14.03;;;;;12.20;101403.00;;;;10458793;28;20186;-71
2023/10/10 05:40:33;;;;;;;21.63;12.93;;;;;12.10;101392.00;;;;10462069;28;20232;-72
2023/10/10 05:45:36;;;;;;;21.87;12.90;;;;;12.10;101384.00;;;;10456674;28;20193;-72
2023/10/10 05:50:42;;;;;;;19.27;12.07;;;;;12.10;101387.00;;;;10457066;28;20185;-72
2023/10/10 05:55:50;;;;;;;19.03;11.07;;;;;12.20;101383.00;;;;10457416;28;20655;-72
2023/10/10 06:00:54;;;;;;;19.20;10.47;;;;;12.30;101377.00;;;;10461979;28;20225;-72
2023/10/10 06:05:56;;;;;;;13.63;9.23;;;;;12.30;101392.00;;;;10463465;28;20200;-72
2023/10/10 06:10:59;;;;;;;16.27;9.50;;;;;12.40;101392.00;;;;10471227;28;20201;-72
2023/10/10 06:16:09;;;;;;;13.00;8.37;;;;;12.50;101392.00;;;;10455941;28;20201;-72
2023/10/10 06:21:11;;;;;;;13.50;8.30;;;;;12.60;101393.00;;;;10454677;28;20225;-73
2023/10/10 06:26:14;;;;;;;18.20;9.30;;;;;12.80;101392.00;;;;10459349;28;20832;-71
2023/10/10 06:31:19;;;;;;;11.23;8.10;;;;;12.90;101393.00;;;;10453581;28;20190;-69
2023/10/10 06:41:27;;;;;;;14.77;8.53;;;;;13.20;101386.00;;;;10461331;28;20226;-71
2023/10/10 06:46:32;;;;;;;14.53;8.97;;;;;13.30;101383.00;;;;10454930;28;20198;-73
2023/10/10 06:51:40;;;;;;;12.90;8.37;;;;;13.40;101387.00;;;;10463899;28;20201;-70
2023/10/10 06:56:45;;;;;;;15.47;8.50;;;;;13.60;101386.00;;;;10454545;28;20202;-70
2023/10/10 07:01:48;;;;;;;12.53;8.47;;;;;13.70;101388.00;;;;10456451;28;20249;-70
2023/10/10 07:06:51;;;;;;;13.70;8.27;;;;;13.80;101381.00;;;;10449929;28;20198;-72
2023/10/10 07:12:02;;;;;;;15.23;8.23;;;;;13.90;101378.00;;;;10452731;28;20194;-73
2023/10/10 07:17:11;;;;;;;14.07;8.47;;;;;14.10;101377.00;;;;10457399;28;20200;-72
2023/10/10 07:22:13;;;;;;;17.77;8.70;;;;;14.30;101381.00;;;;10456162;28;20942;-70
2023/10/10 07:27:18;;;;;;;15.20;8.68;;;;;14.50;101378.00;;;;10457557;28;20216;-72
2023/10/10 07:32:28;;;;;;;14.85;8.48;;;;;14.70;101389.00;;;;10454280;28;20197;-74
2023/10/10 07:37:30;;;;;;;13.38;8.52;;;;;14.90;101389.00;;;;10464167;28;20690;-74
2023/10/10 07:42:34;;;;;;;17.67;9.40;;;;;15.20;101381.00;;;;10455511;28;20251;-76
2023/10/10 07:48:37;;;;;;;18.63;9.25;;;;;15.50;101388.00;;;;10463534;28;20292;-74
2023/10/10 07:52:59;;;;;;;13.60;8.75;;;;;15.70;101385.00;;;;10459200;28;20198;-74
2023/10/10 07:58:01;;;;;;;15.10;8.30;;;;;16.00;101389.00;;;;10457210;28;20230;-75
2023/10/10 08:03:05;;;;;;;12.15;7.82;;;;;16.40;101382.00;;;;10458230;28;20209;-75
2023/10/10 08:08:13;;;;;;;13.48;8.05;;;;;16.80;101382.00;;;;10457615;28;20251;-75
2023/10/10 08:13:20;;;;;;;14.57;8.13;;;;;17.40;101379.00;;;;10455059;28;20289;-74
2023/10/10 08:23:46;;;;;;;14.07;7.53;;;;;18.40;101385.00;;;;10467266;28;20193;-75
2023/10/10 08:28:49;;;;;;;13.55;7.15;;;;;18.50;101393.00;;;;10467730;28;20186;-74
2023/10/10 08:33:51;;;;;;;10.73;6.50;;;;;18.90;101385.00;;;;10470953;28;20190;-74
2023/10/10 08:38:56;;;;;;;15.63;7.53;;;;;19.60;101390.00;;;;10449047;28;20217;-75
2023/10/10 08:43:58;;;;;;;14.77;7.63;;;;;19.90;101396.00;;;;10465180;28;20202;-71
2023/10/10 08:49:04;;;;;;;16.23;7.20;;;;;19.90;101391.00;;;;10465200;28;20706;-72
2023/10/10 08:54:11;;;;;;;12.68;7.03;;;;;19.80;101391.00;;;;10477051;28;20187;-73
2023/10/10 08:59:17;;;;;;;15.38;6.68;;;;;20.10;101393.00;;;;10459056;28;20220;-70
2023/10/10 09:04:20;;;;;;;16.23;6.88;;;;;20.60;101394.00;;;;10453936;28;20264;-70
2023/10/10 09:09:34;;;;;;;12.15;6.88;;;;;21.20;101396.00;;;;10440070;28;20218;-71
2023/10/10 09:14:50;;;;;;;11.07;5.93;;;;;21.50;101400.00;;;;10450541;28;20567;-71
2023/10/10 09:19:52;;;;;;;11.60;6.60;;;;;21.70;101393.00;;;;10449750;28;20229;-71
2023/10/10 09:24:59;;;;;;;11.50;6.13;;;;;22.00;101391.00;;;;10452219;28;20334;-70
2023/10/10 09:30:09;;;;;;;11.60;6.07;;;;;22.00;101397.00;;;;10451375;28;20202;-73
2023/10/10 09:35:13;;;;;;;9.90;6.00;;;;;21.90;101402.00;;;;10447658;28;21466;-71
2023/10/10 09:40:19;;;;;;;9.73;6.22;;;;;21.60;101404.00;;;;10456217;28;20225;-70
2023/10/10 09:46:10;;;;;;;11.48;6.25;;;;;21.80;101391.00;;;;10456754;28;20259;-70
2023/10/10 09:51:07;;;;;;;15.98;7.32;;;;;22.10;101389.00;;;;10444695;28;20202;-74
2023/10/10 09:56:09;;;;;;;14.93;6.15;;;;;22.40;101397.00;;;;10463465;28;20201;-74
2023/10/10 10:01:18;;;;;;;15.07;6.38;;;;;22.30;101392.00;;;;10469593;28;20951;-74
2023/10/10 10:06:38;;;;;;;12.48;5.90;;;;;22.00;101384.00;;;;10465196;28;20284;-74
2023/10/10 10:12:19;;;;;;;15.13;4.78;;;;;21.70;101389.00;;;;10458473;28;20229;-74
2023/10/10 10:17:47;;;;;;;21.35;5.55;;;;;22.20;101386.00;;;;10458883;28;20756;-73
2023/10/10 10:23:00;;;;;;;13.50;4.75;;;;;22.80;101399.00;;;;10447521;28;20264;-75
2023/10/10 10:28:14;;;;;;;11.75;5.30;;;;;23.40;101388.00;;;;10456449;28;20194;-74
2023/10/10 10:33:24;;;;;;;9.15;5.85;;;;;23.70;101400.00;;;;10457615;28;20206;-74
2023/10/10 10:38:26;;;;;;;8.98;4.88;;;;;23.50;101387.00;;;;10460523;28;20964;-74
2023/10/10 10:43:34;;;;;;;13.98;5.22;;;;;23.40;101382.00;;;;10454078;28;20190;-74
2023/10/10 10:48:39;;;;;;;9.55;4.40;;;;;24.10;101375.00;;;;10455467;28;20198;-74
2023/10/10 10:53:50;;;;;;;9.00;4.90;;;;;24.50;101370.00;;;;10465827;28;20256;-74
2023/10/10 11:03:57;;;;;;;8.23;4.80;;;;;24.20;101360.00;;;;10448782;28;20196;-75
2023/10/10 11:09:23;;;;;;;7.55;4.57;;;;;24.30;101350.00;;;;10455794;28;20513;-76
2023/10/10 11:14:28;;;;;;;11.93;4.32;;;;;25.10;101346.00;;;;10446563;28;20208;-74
2023/10/10 11:24:34;;;;;;;12.15;5.70;;;;;25.20;101344.00;;;;10452058;28;20251;-75
2023/10/10 11:29:47;;;;;;;44.80;7.40;;;;;25.40;101332.00;;;;10459076;28;20239;-75
2023/10/10 11:34:51;;;;;;;214.18;15.77;;;;;25.70;101325.00;;;;10447215;28;20884;-75
2023/10/10 11:45:44;;;;;;;10.45;4.78;;;;;26.50;101316.00;;;;10455139;28;20193;-75
2023/10/10 11:50:51;;;;;;;13.85;4.68;;;;;26.80;101324.00;;;;10455707;28;20861;-75
2023/10/10 11:56:01;;;;;;;12.95;4.57;;;;;26.90;101311.00;;;;10453815;28;20855;-75
2023/10/10 12:01:07;;;;;;;12.25;4.97;;;;;27.10;101308.00;;;;10464122;28;20224;-76
2023/10/10 12:06:26;;;;;;;10.77;4.68;;;;;27.20;101296.00;;;;10463380;28;20190;-76
2023/10/10 12:11:32;;;;;;;23.33;4.95;;;;;27.30;101291.00;;;;10463999;28;20196;-71
2023/10/10 12:16:34;;;;;;;12.43;4.72;;;;;27.50;101278.00;;;;10458167;28;20198;-72
2023/10/10 12:21:36;;;;;;;24.30;5.15;;;;;27.30;101285.00;;;;10454651;28;20264;-72
2023/10/10 12:26:41;;;;;;;9.00;4.53;;;;;27.40;101284.00;;;;10455359;28;20749;-70
2023/10/10 12:31:44;;;;;;;11.02;5.47;;;;;27.20;101277.00;;;;10461588;28;20742;-71
2023/10/10 12:36:49;;;;;;;18.55;4.95;;;;;27.00;101275.00;;;;10455360;28;20701;-73
2023/10/10 12:41:50;;;;;;;10.52;4.32;;;;;26.80;101271.00;;;;10443185;28;20371;-70
2023/10/10 12:46:54;;;;;;;10.75;4.57;;;;;26.70;101261.00;;;;10456191;28;20197;-72
2023/10/10 12:51:57;;;;;;;7.25;4.18;;;;;26.80;101259.00;;;;10451665;28;20624;-71
2023/10/10 12:57:03;;;;;;;16.75;4.65;;;;;26.70;101256.00;;;;10453568;28;20984;-72
2023/10/10 13:02:08;;;;;;;11.63;4.45;;;;;26.70;101256.00;;;;10457341;28;20221;-71
2023/10/10 13:07:10;;;;;;;12.23;4.28;;;;;26.40;101249.00;;;;10453951;28;20702;-69
2023/10/10 13:12:18;;;;;;;9.73;3.97;;;;;26.20;101249.00;;;;10454071;28;20259;-69
2023/10/10 13:22:28;;;;;;;6.78;3.90;;;;;26.10;101246.00;;;;10455263;28;20226;-74
2023/10/10 13:27:30;;;;;;;9.73;3.78;;;;;25.80;101239.00;;;;10456241;28;20603;-74
2023/10/10 13:32:32;;;;;;;4.63;3.15;;;;;25.60;101240.00;;;;10455772;28;20202;-75
2023/10/10 13:37:35;;;;;;;9.98;3.90;;;;;25.40;101229.00;;;;10453004;28;20209;-74
2023/10/10 13:42:40;;;;;;;6.07;3.90;;;;;25.30;101238.00;;;;10459252;28;20316;-74
2023/10/10 13:47:47;;;;;;;8.13;3.55;;;;;25.40;101227.00;;;;10454228;28;20202;-75
2023/10/10 13:52:50;;;;;;;8.50;3.83;;;;;25.50;101222.00;;;;10451906;28;20946;-74
2023/10/10 13:57:53;;;;;;;8.15;3.67;;;;;26.30;101215.00;;;;10450509;28;20201;-73
2023/10/10 14:03:03;;;;;;;7.55;3.60;;;;;25.50;101220.00;;;;10456309;28;20335;-74
2023/10/10 14:08:07;;;;;;;9.38;3.25;;;;;25.10;101219.00;;;;10454778;28;20219;-73
2023/10/10 14:13:21;;;;;;;7.97;4.03;;;;;24.70;101214.00;;;;10454256;28;20607;-74
2023/10/10 14:18:25;;;;;;;8.35;3.55;;;;;24.90;101197.00;;;;10448728;28;20189;-74
2023/10/10 14:23:29;;;;;;;8.98;3.75;;;;;25.40;101206.00;;;;10446497;28;20221;-75
2023/10/10 14:28:33;;;;;;;11.40;3.67;;;;;24.80;101216.00;;;;10453215;28;20280;-74
2023/10/10 14:33:36;;;;;;;9.73;3.63;;;;;25.30;101206.00;;;;10453127;28;20197;-73
2023/10/10 14:38:44;;;;;;;7.60;4.13;;;;;24.70;101194.00;;;;10452929;28;20192;-73
2023/10/10 14:43:52;;;;;;;9.07;3.92;;;;;24.60;101194.00;;;;10443396;28;21161;-73
2023/10/10 14:49:01;;;;;;;13.43;3.80;;;;;24.40;101181.00;;;;10450929;28;20219;-73
2023/10/10 14:54:11;;;;;;;5.13;3.33;;;;;24.10;101195.00;;;;10443588;28;20813;-73
2023/10/10 14:59:18;;;;;;;9.48;3.72;;;;;23.90;101182.00;;;;10447805;28;20214;-73
2023/10/10 15:04:21;;;;;;;7.97;3.53;;;;;23.80;101174.00;;;;10450937;28;20193;-74
2023/10/10 15:09:25;;;;;;;7.63;3.65;;;;;23.80;101177.00;;;;10450018;28;20204;-74
2023/10/10 15:14:31;;;;;;;7.30;3.88;;;;;23.80;101165.00;;;;10446869;28;20352;-74
2023/10/10 15:19:34;;;;;;;8.68;3.83;;;;;23.60;101164.00;;;;10447413;28;20305;-74
2023/10/10 15:24:38;;;;;;;8.73;4.07;;;;;23.60;101163.00;;;;10451858;28;20229;-74
2023/10/10 15:29:43;;;;;;;5.80;3.47;;;;;23.50;101159.00;;;;10443729;28;20191;-73
2023/10/10 15:34:46;;;;;;;8.68;3.75;;;;;23.30;101169.00;;;;10451511;28;20185;-73
2023/10/10 15:39:48;;;;;;;7.18;3.60;;;;;23.10;101162.00;;;;10449176;28;20220;-74
2023/10/10 15:44:56;;;;;;;7.50;3.65;;;;;23.00;101150.00;;;;10452282;28;20194;-73
2023/10/10 15:50:00;;;;;;;7.13;3.65;;;;;22.90;101150.00;;;;10452185;28;20193;-73
2023/10/10 15:55:05;;;;;;;9.00;3.50;;;;;22.70;101142.00;;;;10454313;28;20189;-74
2023/10/10 16:00:13;;;;;;;6.97;3.28;;;;;22.70;101142.00;;;;10445857;28;20222;-75
2023/10/10 16:05:16;;;;;;;8.85;3.47;;;;;23.10;101135.00;;;;10449891;28;20251;-73
2023/10/10 16:10:19;;;;;;;8.52;3.38;;;;;23.40;101135.00;;;;10460615;28;20797;-75
2023/10/10 16:15:22;;;;;;;8.48;3.70;;;;;23.20;101138.00;;;;10457032;28;20197;-74
2023/10/10 16:20:35;;;;;;;9.95;3.92;;;;;22.70;101140.00;;;;10447528;28;20233;-74
2023/10/10 16:25:38;;;;;;;13.73;3.80;;;;;22.20;101149.00;;;;10461998;28;20711;-74
2023/10/10 16:30:41;;;;;;;6.53;3.45;;;;;21.80;101133.00;;;;10457909;28;20194;-75
2023/10/10 16:35:46;;;;;;;13.75;3.58;;;;;21.50;101128.00;;;;10454643;28;20293;-74
2023/10/10 16:40:50;;;;;;;6.38;3.88;;;;;21.20;101129.00;;;;10455019;28;20221;-74
2023/10/10 16:45:52;;;;;;;6.47;3.80;;;;;20.90;101128.00;;;;10443130;28;20595;-75
2023/10/10 16:51:01;;;;;;;8.75;3.67;;;;;20.70;101131.00;;;;10459027;28;20210;-73
2023/10/10 16:56:07;;;;;;;6.10;3.38;;;;;20.50;101132.00;;;;10442193;28;20719;-73
2023/10/10 17:01:15;;;;;;;8.10;4.00;;;;;20.40;101138.00;;;;10448233;28;20845;-70
2023/10/10 17:06:22;;;;;;;7.75;3.50;;;;;20.10;101129.00;;;;10448067;28;20202;-72
2023/10/10 17:11:25;;;;;;;8.60;3.83;;;;;20.00;101132.00;;;;10449865;28;20666;-70
2023/10/10 17:16:29;;;;;;;8.85;3.33;;;;;19.80;101128.00;;;;10450082;28;20831;-70
2023/10/10 17:21:34;;;;;;;11.48;3.60;;;;;19.70;101119.00;;;;10445925;28;20244;-73
2023/10/10 17:26:36;;;;;;;6.72;3.55;;;;;19.70;101114.00;;;;10445670;28;20201;-71
2023/10/10 17:31:41;;;;;;;6.68;3.63;;;;;19.60;101127.00;;;;10447929;28;20936;-70
2023/10/10 17:36:44;;;;;;;5.95;3.67;;;;;19.60;101127.00;;;;10447704;28;20640;-71
2023/10/10 17:41:48;;;;;;;9.43;3.80;;;;;19.50;101133.00;;;;10447856;28;20715;-70
2023/10/10 17:46:52;;;;;;;13.32;4.20;;;;;19.50;101128.00;;;;10448913;28;20349;-71
2023/10/10 17:51:54;;;;;;;10.85;3.97;;;;;19.60;101123.00;;;;10448191;28;20547;-72
2023/10/10 17:56:57;;;;;;;15.50;4.47;;;;;19.50;101127.00;;;;10447319;28;20205;-70
2023/10/10 18:01:59;;;;;;;7.28;4.15;;;;;19.50;101123.00;;;;10451908;28;20229;-71
2023/10/10 18:07:02;;;;;;;8.38;3.88;;;;;19.50;101121.00;;;;10451371;28;20575;-72
2023/10/10 18:12:04;;;;;;;6.40;4.00;;;;;19.40;101120.00;;;;10466235;28;20379;-73
2023/10/10 18:17:09;;;;;;;8.57;3.90;;;;;19.40;101118.00;;;;10451295;28;20193;-70
2023/10/10 18:22:11;;;;;;;7.50;4.20;;;;;19.30;101105.00;;;;10452726;28;20875;-71
2023/10/10 18:27:15;;;;;;;6.00;4.22;;;;;19.30;101114.00;;;;10449591;28;20194;-70
2023/10/10 18:32:18;;;;;;;5.90;4.00;;;;;19.20;101112.00;;;;10448516;28;20203;-70
2023/10/10 18:37:19;;;;;;;11.70;4.22;;;;;19.20;101110.00;;;;10449322;28;20294;-73
2023/10/10 18:42:21;;;;;;;8.15;4.57;;;;;19.20;101104.00;;;;10451268;28;20221;-70
2023/10/10 18:47:23;;;;;;;10.10;4.22;;;;;19.20;101108.00;;;;10451234;28;20264;-70
2023/10/10 18:52:25;;;;;;;9.68;3.92;;;;;19.20;101110.00;;;;10445886;28;20198;-71
2023/10/10 18:57:28;;;;;;;8.65;4.60;;;;;19.10;101110.00;;;;10452306;28;20819;-73
2023/10/10 19:02:30;;;;;;;10.40;4.38;;;;;19.20;101115.00;;;;10456077;28;20363;-73
2023/10/10 19:07:34;;;;;;;7.68;4.70;;;;;19.20;101114.00;;;;10455224;28;20194;-71
2023/10/10 19:12:39;;;;;;;10.07;3.97;;;;;19.20;101122.00;;;;10462396;28;20197;-73
2023/10/10 19:17:47;;;;;;;9.15;4.40;;;;;19.30;101119.00;;;;10455133;28;20768;-73
2023/10/10 19:22:54;;;;;;;9.02;4.43;;;;;19.30;101116.00;;;;10451631;28;20290;-73
2023/10/10 19:27:58;;;;;;;9.18;4.38;;;;;19.30;101119.00;;;;10453433;28;20851;-73
2023/10/10 19:33:04;;;;;;;12.40;4.35;;;;;19.20;101126.00;;;;10453935;28;20798;-73
2023/10/10 19:38:08;;;;;;;8.25;4.05;;;;;19.20;101120.00;;;;10450693;28;20206;-74
2023/10/10 19:43:12;;;;;;;10.95;4.68;;;;;19.20;101115.00;;;;10456464;28;20232;-73
2023/10/10 19:48:17;;;;;;;9.68;4.93;;;;;19.10;101120.00;;;;10454148;28;20225;-74
2023/10/10 19:53:21;;;;;;;9.13;4.82;;;;;19.10;101134.00;;;;10445727;28;20206;-74
2023/10/10 19:58:22;;;;;;;8.20;4.47;;;;;19.00;101125.00;;;;10445141;28;20237;-73
2023/10/10 20:03:27;;;;;;;9.40;4.93;;;;;18.90;101120.00;;;;10459084;28;20279;-73
2023/10/10 20:08:34;;;;;;;10.88;4.72;;;;;18.80;101126.00;;;;10456194;28;21098;-74
2023/10/10 20:13:36;;;;;;;9.80;5.00;;;;;18.70;101121.00;;;;10446488;28;20192;-73
2023/10/10 20:18:43;;;;;;;11.05;4.93;;;;;18.60;101120.00;;;;10454572;28;20217;-73
2023/10/10 20:23:46;;;;;;;11.13;4.72;;;;;18.60;101116.00;;;;10458415;28;20666;-75
2023/10/10 20:28:48;;;;;;;10.27;4.95;;;;;18.50;101123.00;;;;10462080;28;20198;-75
2023/10/10 20:33:50;;;;;;;8.00;5.03;;;;;18.50;101124.00;;;;10461634;28;20195;-74
2023/10/10 20:38:53;;;;;;;8.93;4.25;;;;;18.50;101134.00;;;;10434326;28;20853;-76
2023/10/10 20:43:55;;;;;;;8.15;4.93;;;;;18.50;101140.00;;;;10453282;28;20228;-73
2023/10/10 20:48:56;;;;;;;10.77;5.15;;;;;18.50;101139.00;;;;10460493;28;20801;-75
2023/10/10 20:53:58;;;;;;;13.15;5.60;;;;;18.50;101136.00;;;;10455091;28;20281;-76
2023/10/10 20:59:00;;;;;;;9.48;4.63;;;;;18.50;101138.00;;;;10459774;28;20303;-75
2023/10/10 21:04:04;;;;;;;11.60;5.30;;;;;18.40;101146.00;;;;10457797;28;20236;-74
2023/10/10 21:09:06;;;;;;;9.07;5.05;;;;;18.30;101147.00;;;;10448429;28;20190;-75
2023/10/10 21:14:10;;;;;;;9.77;5.30;;;;;18.20;101142.00;;;;10461501;28;20264;-76
2023/10/10 21:19:13;;;;;;;16.20;6.05;;;;;17.90;101131.00;;;;10447732;28;20717;-74
2023/10/10 21:24:17;;;;;;;12.30;5.28;;;;;17.90;101133.00;;;;10452966;28;20221;-74
2023/10/10 21:29:19;;;;;;;9.55;5.43;;;;;17.90;101140.00;;;;10465459;28;20607;-75
2023/10/10 21:34:23;;;;;;;9.18;4.70;;;;;17.90;101130.00;;;;10464128;28;20216;-74
2023/10/10 21:39:25;;;;;;;12.52;4.85;;;;;17.90;101140.00;;;;10464788;28;20186;-74
2023/10/10 21:44:26;;;;;;;12.40;4.45;;;;;17.80;101131.00;;;;10454491;28;20226;-71
2023/10/10 21:49:29;;;;;;;10.77;4.95;;;;;17.70;101135.00;;;;10445946;28;20190;-72
2023/10/10 21:54:32;;;;;;;11.40;4.95;;;;;17.60;101129.00;;;;10459229;28;20204;-72
2023/10/10 21:59:34;;;;;;;10.43;5.00;;;;;17.40;101123.00;;;;10460126;28;20288;-70
2023/10/10 22:04:36;;;;;;;12.35;4.65;;;;;17.20;101125.00;;;;10454316;28;20302;-70
2023/10/10 22:09:38;;;;;;;9.63;4.25;;;;;17.20;101112.00;;;;10453798;28;20205;-71
2023/10/10 22:14:41;;;;;;;11.02;4.68;;;;;17.20;101123.00;;;;10464457;28;20706;-71
2023/10/10 22:19:43;;;;;;;10.93;4.95;;;;;17.10;101116.00;;;;10458120;28;20293;-71
2023/10/10 22:24:45;;;;;;;16.08;4.20;;;;;17.00;101111.00;;;;10447432;28;20287;-70
2023/10/10 22:29:47;;;;;;;8.73;4.55;;;;;17.00;101106.00;;;;10456166;28;20194;-70
2023/10/10 22:34:48;;;;;;;9.93;4.82;;;;;17.00;101108.00;;;;10454547;28;20296;-72
2023/10/10 22:39:50;;;;;;;8.55;4.30;;;;;17.10;101096.00;;;;10455216;28;20213;-71
2023/10/10 22:44:53;;;;;;;9.05;4.30;;;;;17.10;101101.00;;;;10447346;28;20233;-71
2023/10/10 22:49:57;;;;;;;10.50;4.20;;;;;17.00;101086.00;;;;10458805;28;20203;-72
2023/10/10 22:54:59;;;;;;;8.18;4.40;;;;;17.00;101091.00;;;;10456993;28;20286;-71
2023/10/10 23:00:05;;;;;;;7.28;3.90;;;;;17.00;101081.00;;;;10451586;28;20276;-71
2023/10/10 23:05:08;;;;;;;9.25;4.63;;;;;16.90;101082.00;;;;10453737;28;20202;-70
2023/10/10 23:10:12;;;;;;;11.98;4.00;;;;;16.80;101077.00;;;;10451159;28;20329;-71
2023/10/10 23:15:16;;;;;;;10.43;4.57;;;;;16.80;101079.00;;;;10452443;28;20194;-70
2023/10/10 23:20:20;;;;;;;7.82;3.83;;;;;16.80;101076.00;;;;10454714;28;20367;-70
2023/10/10 23:25:25;;;;;;;7.43;4.95;;;;;16.80;101073.00;;;;10452591;28;20229;-70
2023/10/10 23:30:28;;;;;;;7.32;3.78;;;;;16.70;101080.00;;;;10454849;28;20994;-72
2023/10/10 23:35:31;;;;;;;7.38;3.63;;;;;16.60;101074.00;;;;10455444;28;20589;-72
2023/10/10 23:40:40;;;;;;;7.70;4.00;;;;;16.50;101079.00;;;;10453845;28;20230;-70
2023/10/10 23:45:43;;;;;;;12.73;4.57;;;;;16.40;101077.00;;;;10450227;28;20225;-70
2023/10/10 23:50:45;;;;;;;8.70;4.47;;;;;16.30;101075.00;;;;10444329;28;20209;-71
2023/10/10 23:55:48;;;;;;;6.60;4.20;;;;;16.30;101078.00;;;;10456532;28;20205;-70
